Time;durP1;ratioP1;P1;durP2;ratioP2;P2;SDS_P1;SDS_P2;PMS_P1;PMS_P2;Temp;Humidity;BMP_temperature;BMP_pressure;BME280_temperature;BME280_humidity;BME280_pressure;Samples;Min_cycle;Max_cycle;Signal;HPM_P1;HPM_P2
2021/05/03 00:01:54;;;;;;;1.15;0.60;;;22.80;37.30;;;;;;5033088;28;20402;-64
2021/05/03 00:04:20;;;;;;;1.00;0.70;;;22.80;37.30;;;;;;5032631;28;20461;-63
2021/05/03 00:06:46;;;;;;;1.33;0.73;;;22.80;37.40;;;;;;5032513;28;20450;-63
2021/05/03 00:09:11;;;;;;;1.70;0.70;;;22.80;37.40;;;;;;5032884;28;20428;-63
2021/05/03 00:11:37;;;;;;;1.20;0.70;;;22.80;37.30;;;;;;5032848;28;20415;-64
2021/05/03 00:14:03;;;;;;;0.90;0.70;;;22.80;37.40;;;;;;5032901;28;20394;-64
2021/05/03 00:16:29;;;;;;;0.85;0.70;;;22.80;37.30;;;;;;5032484;28;20408;-63
2021/05/03 00:18:54;;;;;;;1.00;0.50;;;22.80;37.30;;;;;;5032739;28;20384;-64
2021/05/03 00:21:20;;;;;;;1.23;0.50;;;22.80;37.40;;;;;;5032772;28;20486;-64
2021/05/03 00:23:46;;;;;;;1.00;0.60;;;22.80;37.40;;;;;;5033048;28;20402;-63
2021/05/03 00:26:11;;;;;;;1.20;0.60;;;22.80;37.40;;;;;;5032452;28;20967;-63
2021/05/03 00:28:38;;;;;;;0.90;0.60;;;22.80;37.30;;;;;;5032554;28;20391;-63
2021/05/03 00:31:04;;;;;;;0.80;0.60;;;22.80;37.30;;;;;;5032394;28;20538;-63
2021/05/03 00:33:30;;;;;;;0.80;0.60;;;22.80;37.20;;;;;;5031458;28;20383;-63
2021/05/03 00:35:55;;;;;;;0.90;0.70;;;22.80;37.20;;;;;;5032473;28;20406;-63
2021/05/03 00:38:21;;;;;;;0.73;0.50;;;22.80;37.20;;;;;;5032031;28;20384;-63
2021/05/03 00:40:46;;;;;;;0.90;0.77;;;22.80;37.20;;;;;;5031823;28;20494;-60
2021/05/03 00:43:18;;;;;;;0.70;0.50;;;22.80;37.10;;;;;;5031155;28;20465;-63
2021/05/03 00:45:43;;;;;;;1.00;0.77;;;22.80;37.10;;;;;;5032418;28;20449;-64
2021/05/03 00:48:10;;;;;;;1.08;0.68;;;22.80;37.10;;;;;;5032274;28;20387;-63
2021/05/03 00:50:37;;;;;;;1.02;0.70;;;22.80;37.10;;;;;;5031912;28;20423;-63
2021/05/03 00:53:03;;;;;;;1.10;0.60;;;22.80;37.10;;;;;;5031902;28;20387;-64
2021/05/03 00:55:29;;;;;;;0.70;0.60;;;22.80;37.10;;;;;;5032238;28;20407;-63
2021/05/03 00:57:55;;;;;;;1.02;0.60;;;22.80;37.10;;;;;;5032042;28;20397;-63
2021/05/03 01:00:24;;;;;;;0.80;0.60;;;22.80;37.10;;;;;;5031744;28;20391;-63
2021/05/03 01:02:50;;;;;;;1.07;0.70;;;22.80;37.10;;;;;;5032061;28;20401;-63
2021/05/03 01:05:17;;;;;;;1.20;0.60;;;22.80;37.10;;;;;;5031879;28;20716;-62
2021/05/03 01:07:42;;;;;;;0.75;0.50;;;22.70;37.00;;;;;;5031974;28;20816;-64
2021/05/03 01:10:09;;;;;;;1.10;0.80;;;22.70;37.00;;;;;;5031847;28;20438;-63
2021/05/03 01:12:37;;;;;;;1.00;0.70;;;22.80;37.00;;;;;;5031497;28;20764;-63
2021/05/03 01:15:04;;;;;;;1.15;0.70;;;22.70;37.00;;;;;;5027469;28;20490;-63
2021/05/03 01:17:32;;;;;;;1.08;0.68;;;22.80;36.90;;;;;;5031778;28;20387;-64
2021/05/03 01:19:57;;;;;;;1.00;0.60;;;22.80;37.00;;;;;;5032134;28;20383;-63
2021/05/03 01:22:23;;;;;;;1.30;0.80;;;22.80;36.90;;;;;;5030958;28;20391;-63
2021/05/03 01:24:49;;;;;;;1.00;0.70;;;22.70;36.90;;;;;;5031083;28;20395;-63
2021/05/03 01:27:15;;;;;;;0.80;0.60;;;22.70;36.90;;;;;;5031829;28;20391;-63
2021/05/03 01:29:40;;;;;;;1.70;0.77;;;22.70;36.80;;;;;;5031495;28;20403;-64
2021/05/03 01:32:06;;;;;;;0.90;0.60;;;22.70;36.80;;;;;;5031610;28;20395;-64
2021/05/03 01:34:32;;;;;;;1.00;0.73;;;22.70;36.80;;;;;;5031042;28;20476;-63
2021/05/03 01:36:57;;;;;;;0.90;0.65;;;22.70;36.80;;;;;;5030303;28;20418;-63
2021/05/03 01:39:23;;;;;;;1.03;0.70;;;22.70;36.70;;;;;;5031591;28;20409;-64
2021/05/03 01:41:49;;;;;;;1.35;0.90;;;22.70;36.70;;;;;;5031562;28;20405;-63
2021/05/03 01:44:16;;;;;;;1.00;0.70;;;22.70;36.80;;;;;;5031220;28;20399;-62
2021/05/03 01:46:42;;;;;;;0.85;0.68;;;22.70;36.80;;;;;;5031340;28;20386;-64
2021/05/03 01:49:09;;;;;;;0.80;0.60;;;22.60;36.70;;;;;;5031204;28;20428;-64
2021/05/03 01:51:37;;;;;;;1.10;0.70;;;22.60;36.80;;;;;;5032022;28;20782;-63
2021/05/03 01:54:04;;;;;;;1.00;0.70;;;22.60;36.70;;;;;;5035547;28;20433;-63
2021/05/03 01:56:30;;;;;;;1.17;0.70;;;22.60;36.70;;;;;;5035154;28;20898;-64
2021/05/03 01:58:57;;;;;;;1.05;0.60;;;22.60;36.70;;;;;;5035481;28;20422;-64
2021/05/03 02:01:23;;;;;;;0.80;0.60;;;22.60;36.70;;;;;;5035514;28;20394;-64
2021/05/03 02:03:48;;;;;;;0.80;0.70;;;22.60;36.70;;;;;;5035445;28;20391;-63
2021/05/03 02:06:15;;;;;;;0.80;0.60;;;22.60;36.70;;;;;;5034996;28;20403;-61
2021/05/03 02:08:42;;;;;;;0.95;0.70;;;22.50;36.60;;;;;;5033852;28;20478;-64
2021/05/03 02:11:08;;;;;;;0.90;0.70;;;22.60;36.70;;;;;;5035298;28;20469;-64
2021/05/03 02:13:34;;;;;;;0.95;0.60;;;22.60;36.60;;;;;;5035307;28;20383;-63
2021/05/03 02:16:00;;;;;;;0.90;0.57;;;22.60;36.60;;;;;;5035139;28;20394;-63
2021/05/03 02:18:26;;;;;;;1.10;0.60;;;22.60;36.60;;;;;;5034647;28;20451;-63
2021/05/03 02:20:52;;;;;;;1.10;0.70;;;22.60;36.60;;;;;;5035086;28;20398;-63
2021/05/03 02:23:18;;;;;;;0.82;0.70;;;22.60;36.50;;;;;;5035127;28;20391;-63
2021/05/03 02:25:44;;;;;;;1.00;0.70;;;22.60;36.50;;;;;;5035062;28;20414;-63
2021/05/03 02:28:10;;;;;;;1.00;0.60;;;22.60;36.50;;;;;;5034913;28;20406;-63
2021/05/03 02:30:38;;;;;;;0.77;0.50;;;22.60;36.50;;;;;;5034422;28;20420;-63
2021/05/03 02:33:04;;;;;;;1.05;0.70;;;22.60;36.50;;;;;;5034886;28;20406;-64
2021/05/03 02:35:32;;;;;;;0.70;0.50;;;22.60;36.50;;;;;;5034926;28;20747;-63
2021/05/03 02:38:00;;;;;;;0.93;0.60;;;22.60;36.50;;;;;;5034714;28;20379;-63
2021/05/03 02:40:26;;;;;;;0.70;0.60;;;22.60;36.50;;;;;;5034305;28;20818;-63
2021/05/03 02:42:54;;;;;;;0.80;0.50;;;22.60;36.50;;;;;;5034672;28;20391;-63
2021/05/03 02:45:21;;;;;;;1.00;0.55;;;22.60;36.50;;;;;;5034670;28;20403;-63
2021/05/03 02:47:47;;;;;;;0.80;0.60;;;22.60;36.50;;;;;;5034541;28;20375;-63
2021/05/03 02:50:14;;;;;;;0.80;0.50;;;22.60;36.40;;;;;;5034525;28;20421;-63
2021/05/03 02:52:41;;;;;;;0.95;0.60;;;22.60;36.40;;;;;;5033562;28;20389;-64
2021/05/03 02:55:11;;;;;;;0.85;0.47;;;22.60;36.40;;;;;;5033974;28;20402;-63
2021/05/03 02:57:41;;;;;;;0.90;0.60;;;22.60;36.40;;;;;;5034386;28;20383;-63
2021/05/03 03:00:09;;;;;;;0.80;0.55;;;22.60;36.40;;;;;;5033044;28;20398;-64
2021/05/03 03:02:35;;;;;;;0.85;0.70;;;22.60;36.30;;;;;;5032308;28;20399;-63
2021/05/03 03:05:01;;;;;;;0.70;0.50;;;22.60;36.90;;;;;;5033924;28;20390;-63
2021/05/03 03:07:27;;;;;;;0.70;0.40;;;22.60;36.30;;;;;;5034213;28;20488;-64
2021/05/03 03:09:53;;;;;;;0.93;0.60;;;22.60;36.20;;;;;;5034139;28;20439;-64
2021/05/03 03:12:19;;;;;;;1.00;0.53;;;22.60;36.90;;;;;;5033941;28;20461;-63
2021/05/03 03:14:44;;;;;;;0.70;0.55;;;22.50;36.20;;;;;;5033943;28;20382;-64
2021/05/03 03:17:10;;;;;;;0.75;0.57;;;22.60;36.20;;;;;;5034079;28;20797;-63
2021/05/03 03:19:40;;;;;;;0.80;0.70;;;22.50;36.20;;;;;;5033981;28;20539;-63
2021/05/03 03:22:07;;;;;;;0.73;0.52;;;22.50;36.10;;;;;;5033939;28;20395;-63
2021/05/03 03:24:33;;;;;;;1.00;0.60;;;22.50;36.20;;;;;;5032204;28;20415;-64
2021/05/03 03:26:59;;;;;;;1.10;0.60;;;22.50;36.20;;;;;;5033831;28;20822;-63
2021/05/03 03:29:25;;;;;;;0.65;0.50;;;22.50;36.20;;;;;;5033765;28;20798;-64
2021/05/03 03:31:51;;;;;;;0.73;0.57;;;22.50;36.70;;;;;;5032507;28;20403;-64
2021/05/03 03:34:16;;;;;;;0.70;0.45;;;22.50;36.20;;;;;;5033779;28;20387;-64
2021/05/03 03:36:42;;;;;;;0.80;0.67;;;22.50;36.20;;;;;;5033222;28;20387;-64
2021/05/03 03:39:08;;;;;;;0.80;0.60;;;22.50;36.20;;;;;;5033616;28;20716;-64
2021/05/03 03:41:34;;;;;;;0.90;0.60;;;22.50;36.10;;;;;;5033707;28;20474;-64
2021/05/03 03:44:01;;;;;;;0.75;0.57;;;22.50;36.10;;;;;;5033541;28;20394;-64
2021/05/03 03:46:26;;;;;;;0.70;0.50;;;22.50;36.10;;;;;;5031766;28;20410;-64
2021/05/03 03:48:52;;;;;;;0.80;0.50;;;22.50;36.10;;;;;;5033414;28;20383;-63
2021/05/03 03:51:18;;;;;;;0.70;0.50;;;22.50;36.10;;;;;;5033420;28;20906;-63
2021/05/03 03:53:43;;;;;;;0.70;0.50;;;22.50;36.10;;;;;;5033201;28;20391;-63
2021/05/03 03:56:11;;;;;;;0.80;0.53;;;22.50;36.10;;;;;;5033229;28;20413;-63
2021/05/03 03:58:37;;;;;;;0.70;0.50;;;22.50;36.10;;;;;;5032893;28;20406;-63
2021/05/03 04:01:03;;;;;;;0.60;0.50;;;22.50;36.80;;;;;;5031901;28;20907;-63
2021/05/03 04:03:29;;;;;;;0.60;0.50;;;22.50;36.70;;;;;;5033261;28;20383;-62
2021/05/03 04:08:42;;;;;;;1.27;0.70;;;22.50;36.00;;;;;;5032329;28;20490;-61
2021/05/03 04:11:23;;;;;;;1.30;0.70;;;22.50;36.40;;;;;;5032417;28;20976;-63
2021/05/03 04:27:07;;;;;;;0.85;0.55;;;22.30;35.90;;;;;;5032986;28;20419;-63
2021/05/03 04:29:33;;;;;;;1.30;0.50;;;22.30;35.90;;;;;;5032551;28;20419;-63
2021/05/03 04:31:59;;;;;;;2.67;0.70;;;22.20;36.00;;;;;;5023456;28;21037;-61
2021/05/03 04:34:24;;;;;;;1.25;0.52;;;22.20;36.00;;;;;;5022068;28;20391;-63
2021/05/03 04:36:50;;;;;;;1.33;0.60;;;22.20;36.00;;;;;;5022980;28;20846;-63
2021/05/03 04:39:16;;;;;;;1.30;0.60;;;22.20;36.00;;;;;;5022103;28;20455;-63
2021/05/03 04:41:41;;;;;;;1.10;0.50;;;22.20;36.10;;;;;;5021588;28;20400;-64
2021/05/03 04:44:07;;;;;;;1.20;0.60;;;22.10;36.00;;;;;;5021248;28;20418;-61
2021/05/03 04:46:33;;;;;;;1.00;0.60;;;22.10;36.20;;;;;;5021345;28;20565;-63
2021/05/03 04:48:58;;;;;;;2.67;0.70;;;22.10;36.30;;;;;;5021771;28;20780;-63
2021/05/03 04:51:24;;;;;;;1.10;0.60;;;22.10;36.30;;;;;;5016374;28;20499;-64
2021/05/03 04:53:49;;;;;;;1.80;0.60;;;22.10;36.20;;;;;;5012335;28;20397;-63
2021/05/03 04:56:15;;;;;;;1.15;0.60;;;22.10;36.20;;;;;;5012407;28;20400;-63
2021/05/03 04:58:41;;;;;;;1.27;0.70;;;22.10;36.20;;;;;;5011598;28;20397;-64
2021/05/03 05:01:07;;;;;;;3.53;1.50;;;22.10;36.50;;;;;;5012082;28;21023;-64
2021/05/03 05:03:32;;;;;;;4.97;1.40;;;22.30;36.60;;;;;;5012472;28;20396;-63
2021/05/03 05:05:58;;;;;;;8.20;1.20;;;22.40;36.70;;;;;;5013823;28;20769;-63
2021/05/03 05:08:23;;;;;;;5.83;1.40;;;22.30;37.10;;;;;;5024101;28;20397;-62
2021/05/03 05:10:49;;;;;;;4.07;1.00;;;22.30;36.80;;;;;;5042271;28;20413;-61
2021/05/03 05:13:15;;;;;;;2.97;0.90;;;22.20;36.50;;;;;;5031864;28;20399;-60
2021/05/03 05:15:41;;;;;;;5.63;0.90;;;22.20;36.60;;;;;;5031894;28;20394;-60
2021/05/03 05:18:08;;;;;;;3.80;1.30;;;22.20;36.60;;;;;;5031728;28;20398;-60
2021/05/03 05:20:34;;;;;;;2.47;1.08;;;22.10;37.10;;;;;;5025599;28;20396;-61
2021/05/03 05:23:04;;;;;;;2.40;0.90;;;22.20;36.80;;;;;;5020584;28;20391;-60
2021/05/03 05:25:29;;;;;;;4.25;1.10;;;22.20;36.80;;;;;;5020893;28;20397;-62
2021/05/03 05:27:55;;;;;;;4.30;1.10;;;22.20;37.10;;;;;;5019209;28;20895;-62
2021/05/03 05:30:21;;;;;;;2.83;1.00;;;22.20;37.10;;;;;;5020746;28;20453;-60
2021/05/03 05:32:47;;;;;;;3.35;0.98;;;22.30;37.10;;;;;;5020597;28;20808;-63
2021/05/03 05:35:12;;;;;;;4.00;1.23;;;22.30;37.10;;;;;;5019429;28;20792;-61
2021/05/03 05:37:38;;;;;;;4.60;1.20;;;22.20;37.10;;;;;;5023428;28;20404;-61
2021/05/03 05:40:05;;;;;;;2.80;1.00;;;22.20;37.10;;;;;;5022710;28;20450;-60
2021/05/03 05:42:31;;;;;;;3.08;1.10;;;22.20;37.60;;;;;;5023897;28;20921;-60
2021/05/03 05:44:56;;;;;;;4.07;1.20;;;22.10;37.70;;;;;;5018874;28;20490;-59
2021/05/03 05:47:22;;;;;;;1.80;1.00;;;22.10;37.50;;;;;;5020150;28;20387;-59
2021/05/03 05:49:48;;;;;;;2.63;1.20;;;22.10;37.30;;;;;;5021075;28;22784;-60
2021/05/03 05:52:14;;;;;;;2.13;0.85;;;22.10;37.40;;;;;;5019088;28;20531;-60
2021/05/03 05:54:39;;;;;;;4.47;1.17;;;22.10;37.20;;;;;;5020249;28;20520;-60
2021/05/03 05:57:05;;;;;;;3.55;1.10;;;22.10;37.20;;;;;;5029207;28;20915;-59
2021/05/03 05:59:31;;;;;;;2.00;0.90;;;22.10;37.50;;;;;;5030922;28;20398;-61
2021/05/03 06:01:57;;;;;;;4.00;1.00;;;22.10;37.40;;;;;;5031451;28;20544;-60
2021/05/03 06:04:22;;;;;;;3.65;1.00;;;22.10;37.90;;;;;;5031218;28;20889;-59
2021/05/03 06:06:48;;;;;;;2.27;1.00;;;22.10;37.30;;;;;;5028710;28;20418;-60
2021/05/03 06:09:14;;;;;;;2.13;1.02;;;22.10;37.30;;;;;;5031423;28;20394;-60
2021/05/03 06:11:39;;;;;;;1.80;0.70;;;22.10;37.10;;;;;;5029599;28;20454;-60
2021/05/03 06:14:05;;;;;;;2.70;0.90;;;22.00;37.20;;;;;;5026300;28;20419;-61
2021/05/03 06:16:31;;;;;;;2.03;0.80;;;22.00;37.10;;;;;;5009839;28;20484;-61
2021/05/03 06:18:57;;;;;;;2.05;1.00;;;22.00;37.10;;;;;;5011107;28;20744;-60
2021/05/03 06:21:22;;;;;;;1.98;0.80;;;22.10;37.20;;;;;;5011120;28;20393;-60
2021/05/03 06:23:48;;;;;;;1.77;0.90;;;22.00;37.10;;;;;;5010009;28;20745;-60
2021/05/03 06:26:14;;;;;;;2.67;0.80;;;22.00;37.30;;;;;;5010231;28;20404;-59
2021/05/03 06:28:39;;;;;;;2.37;0.90;;;21.90;37.50;;;;;;5010242;28;20817;-59
2021/05/03 06:31:05;;;;;;;2.00;0.80;;;21.90;37.40;;;;;;5010550;28;20423;-60
2021/05/03 06:33:30;;;;;;;1.70;0.77;;;21.90;37.50;;;;;;5011311;28;20389;-59
2021/05/03 06:35:56;;;;;;;5.28;1.00;;;22.00;37.40;;;;;;5011070;28;20400;-59
2021/05/03 06:38:22;;;;;;;1.23;0.70;;;22.00;37.30;;;;;;5012617;28;20468;-59
2021/05/03 06:40:49;;;;;;;2.92;0.73;;;22.00;37.20;;;;;;5013380;28;20480;-59
2021/05/03 06:43:15;;;;;;;1.37;0.70;;;22.00;37.10;;;;;;5013581;28;20769;-59
2021/05/03 06:45:40;;;;;;;3.35;0.80;;;22.00;37.00;;;;;;5014753;28;20393;-59
2021/05/03 06:48:09;;;;;;;1.98;0.70;;;22.10;37.00;;;;;;5014207;28;20399;-59
2021/05/03 06:50:35;;;;;;;1.77;0.60;;;22.20;37.10;;;;;;5014039;28;20939;-59
2021/05/03 06:53:01;;;;;;;0.93;0.60;;;22.20;36.80;;;;;;5013969;28;20384;-59
2021/05/03 06:55:26;;;;;;;1.70;0.60;;;22.20;36.90;;;;;;5014805;28;20399;-60
2021/05/03 06:57:54;;;;;;;1.33;0.60;;;22.30;36.90;;;;;;5015329;28;20401;-60
2021/05/03 07:00:20;;;;;;;1.63;0.63;;;22.20;36.80;;;;;;5030413;28;20396;-62
2021/05/03 07:02:45;;;;;;;2.88;0.70;;;22.30;37.20;;;;;;5032176;28;20383;-59
2021/05/03 07:05:11;;;;;;;3.08;0.80;;;22.20;37.80;;;;;;5033859;28;20790;-59
2021/05/03 07:07:37;;;;;;;2.03;0.70;;;22.20;37.30;;;;;;5033186;28;20427;-59
2021/05/03 07:10:05;;;;;;;3.72;0.80;;;22.30;37.40;;;;;;5032910;28;20966;-60
2021/05/03 07:12:32;;;;;;;2.13;0.70;;;22.30;37.60;;;;;;5024850;28;20502;-60
2021/05/03 07:14:58;;;;;;;1.60;0.70;;;22.40;37.40;;;;;;5028855;28;20437;-64
2021/05/03 07:17:24;;;;;;;3.10;1.00;;;22.40;37.30;;;;;;5024671;28;20402;-63
2021/05/03 07:19:50;;;;;;;2.00;0.90;;;22.40;36.90;;;;;;5024844;28;20446;-62
2021/05/03 07:22:16;;;;;;;1.33;0.70;;;22.40;36.80;;;;;;5023266;28;20401;-60
2021/05/03 07:24:42;;;;;;;1.77;0.80;;;22.40;36.80;;;;;;5018854;28;20393;-63
2021/05/03 07:27:09;;;;;;;2.27;0.70;;;22.50;36.90;;;;;;5020517;28;20398;-62
2021/05/03 07:29:36;;;;;;;3.35;0.98;;;22.50;36.70;;;;;;5022313;28;20402;-63
2021/05/03 07:32:02;;;;;;;6.53;1.20;;;22.50;36.90;;;;;;5023918;28;20405;-64
2021/05/03 07:34:28;;;;;;;3.78;0.90;;;22.60;37.30;;;;;;5027074;28;20426;-63
2021/05/03 07:36:54;;;;;;;6.20;1.00;;;22.60;37.00;;;;;;5032951;28;20426;-60
2021/05/03 07:39:21;;;;;;;3.47;0.82;;;22.70;37.40;;;;;;5021952;28;20726;-63
2021/05/03 07:41:47;;;;;;;3.50;0.82;;;22.70;37.90;;;;;;5013905;28;20801;-62
2021/05/03 07:44:14;;;;;;;3.15;0.80;;;22.70;37.20;;;;;;5018778;28;20918;-63
2021/05/03 07:46:41;;;;;;;5.18;0.70;;;22.70;37.10;;;;;;5032956;28;20391;-63
2021/05/03 07:49:07;;;;;;;2.72;0.98;;;22.80;36.90;;;;;;5032162;28;20940;-63
2021/05/03 07:51:33;;;;;;;3.90;0.80;;;22.80;36.80;;;;;;5033337;28;20471;-62
2021/05/03 07:54:00;;;;;;;2.45;0.88;;;22.80;37.70;;;;;;5023636;28;20389;-60
2021/05/03 07:56:26;;;;;;;4.50;0.90;;;22.80;37.40;;;;;;5012842;28;20401;-61
2021/05/03 07:58:52;;;;;;;3.67;0.70;;;22.80;36.80;;;;;;5023721;28;20387;-62
2021/05/03 08:01:18;;;;;;;2.55;0.80;;;22.70;36.60;;;;;;5032924;28;20474;-63
2021/05/03 08:03:44;;;;;;;3.30;0.80;;;22.70;36.80;;;;;;5032811;28;20398;-61
2021/05/03 08:06:13;;;;;;;2.33;0.70;;;22.70;37.20;;;;;;5032571;28;20411;-63
2021/05/03 08:08:44;;;;;;;3.17;0.90;;;22.70;36.70;;;;;;5031764;28;20508;-62
2021/05/03 08:11:10;;;;;;;4.35;0.98;;;22.70;36.60;;;;;;5032395;28;20423;-63
2021/05/03 08:13:38;;;;;;;2.25;0.68;;;22.70;37.20;;;;;;5032302;28;20410;-62
2021/05/03 08:16:07;;;;;;;5.00;0.90;;;22.70;36.70;;;;;;5032682;28;20383;-63
2021/05/03 08:18:32;;;;;;;3.55;0.77;;;22.70;36.70;;;;;;5032766;28;20402;-62
2021/05/03 08:20:58;;;;;;;3.65;0.73;;;22.70;37.60;;;;;;5032180;28;20871;-62
2021/05/03 08:23:25;;;;;;;3.83;0.88;;;22.80;37.60;;;;;;5032494;28;20403;-62
2021/05/03 08:25:53;;;;;;;3.10;0.90;;;22.70;37.10;;;;;;5032623;28;20419;-63
2021/05/03 08:28:19;;;;;;;2.83;0.70;;;22.70;38.00;;;;;;5032638;28;20383;-63
2021/05/03 08:30:46;;;;;;;3.55;0.80;;;22.70;37.00;;;;;;5031633;28;20417;-63
2021/05/03 08:33:12;;;;;;;2.45;0.82;;;22.70;37.60;;;;;;5032502;28;20387;-63
2021/05/03 08:35:38;;;;;;;11.75;1.65;;;22.70;37.50;;;;;;5032031;28;20775;-62
2021/05/03 08:38:04;;;;;;;6.30;1.15;;;22.70;37.40;;;;;;5031107;28;20395;-63
2021/05/03 08:40:30;;;;;;;7.07;1.10;;;22.70;37.10;;;;;;5032210;28;20399;-63
2021/05/03 08:42:56;;;;;;;4.57;1.25;;;22.70;37.40;;;;;;5031644;28;20914;-63
2021/05/03 08:45:23;;;;;;;6.30;1.00;;;22.70;37.20;;;;;;5032061;28;20427;-63
2021/05/03 08:50:48;;;;;;;5.10;0.70;;;22.80;37.10;;;;;;5032212;28;20518;-63
2021/05/03 08:53:26;;;;;;;2.40;0.80;;;22.70;36.90;;;;;;5032082;28;20469;-62
2021/05/03 08:55:52;;;;;;;3.33;0.70;;;22.80;37.00;;;;;;5031821;28;20443;-63
2021/05/03 08:58:18;;;;;;;2.88;0.80;;;22.80;36.80;;;;;;5032131;28;20461;-63
2021/05/03 09:00:44;;;;;;;3.42;0.80;;;22.80;36.60;;;;;;5031181;28;20395;-62
2021/05/03 09:03:11;;;;;;;2.95;0.80;;;22.70;36.70;;;;;;5029599;28;20420;-64
2021/05/03 09:05:41;;;;;;;3.67;0.90;;;22.70;36.40;;;;;;5015349;28;20466;-63
2021/05/03 09:08:07;;;;;;;1.73;0.70;;;22.70;36.40;;;;;;5012128;28;20411;-64
2021/05/03 09:10:33;;;;;;;4.63;0.80;;;22.70;36.60;;;;;;5011419;28;20420;-63
2021/05/03 09:13:10;;;;;;;2.27;0.70;;;22.70;36.70;;;;;;5011158;28;20385;-63
2021/05/03 09:15:35;;;;;;;1.48;0.70;;;22.70;36.60;;;;;;5012013;28;20388;-64
2021/05/03 09:18:01;;;;;;;1.92;0.80;;;22.80;36.50;;;;;;5011830;28;20384;-63
2021/05/03 09:20:27;;;;;;;3.15;0.90;;;22.80;36.40;;;;;;5012215;28;20404;-64
2021/05/03 09:23:03;;;;;;;1.85;0.60;;;22.80;36.30;;;;;;5011391;28;20425;-62
2021/05/03 09:25:41;;;;;;;1.50;0.75;;;22.80;36.20;;;;;;5011916;28;20880;-63
2021/05/03 09:28:08;;;;;;;2.20;0.70;;;22.90;36.10;;;;;;5011913;28;20428;-60
2021/05/03 09:30:35;;;;;;;2.10;0.60;;;22.80;36.10;;;;;;5010424;28;20409;-62
2021/05/03 09:33:11;;;;;;;2.03;0.70;;;22.80;36.20;;;;;;5011127;28;20388;-63
2021/05/03 09:35:55;;;;;;;1.42;0.60;;;22.80;36.30;;;;;;5011810;28;20385;-63
2021/05/03 09:38:44;;;;;;;1.85;0.60;;;22.80;36.50;;;;;;5011891;28;20769;-62
2021/05/03 09:41:12;;;;;;;1.88;0.80;;;22.80;36.60;;;;;;5011641;28;20387;-63
2021/05/03 09:43:41;;;;;;;3.20;0.83;;;22.80;36.60;;;;;;5011689;28;20935;-63
2021/05/03 09:46:31;;;;;;;2.53;0.70;;;22.80;36.50;;;;;;5011628;28;20400;-63
2021/05/03 09:49:00;;;;;;;2.35;0.60;;;22.80;36.50;;;;;;5011179;28;20384;-63
2021/05/03 09:51:41;;;;;;;2.78;0.73;;;22.80;36.50;;;;;;5011591;28;20417;-63
2021/05/03 09:54:27;;;;;;;3.47;0.57;;;22.80;36.40;;;;;;5010094;28;20511;-63
2021/05/03 09:57:02;;;;;;;4.13;1.30;;;22.80;36.40;;;;;;5009550;28;20399;-60
2021/05/03 09:59:34;;;;;;;5.47;1.23;;;22.80;36.10;;;;;;5011529;28;20912;-63
2021/05/03 10:02:14;;;;;;;5.28;0.90;;;22.70;36.30;;;;;;5011397;28;20447;-63
2021/05/03 10:05:13;;;;;;;3.40;0.90;;;22.60;36.70;;;;;;5011504;28;20404;-63
2021/05/03 10:07:41;;;;;;;2.67;0.90;;;22.50;36.50;;;;;;5000051;28;20415;-62
2021/05/03 10:10:15;;;;;;;2.22;0.80;;;22.40;36.90;;;;;;5012211;28;20411;-63
2021/05/03 10:12:41;;;;;;;4.80;0.80;;;22.40;36.90;;;;;;5012270;28;20877;-60
2021/05/03 10:15:10;;;;;;;4.43;1.02;;;22.40;37.00;;;;;;5014890;28;20476;-63
2021/05/03 10:17:40;;;;;;;5.50;1.00;;;22.50;37.70;;;;;;5015303;28;20399;-63
2021/05/03 10:20:08;;;;;;;2.88;0.80;;;22.60;37.10;;;;;;5015009;28;20393;-64
2021/05/03 10:22:34;;;;;;;3.03;1.08;;;22.70;38.00;;;;;;5015207;28;20385;-64
2021/05/03 10:25:04;;;;;;;2.17;0.90;;;22.70;38.10;;;;;;5014376;28;20847;-64
2021/05/03 10:27:31;;;;;;;3.35;1.30;;;22.60;38.50;;;;;;5014870;28;20389;-64
2021/05/03 10:30:08;;;;;;;3.90;0.98;;;22.70;38.40;;;;;;5014607;28;20888;-64
2021/05/03 10:32:36;;;;;;;2.78;0.90;;;22.70;38.90;;;;;;5014949;28;20412;-64
2021/05/03 10:35:05;;;;;;;2.55;0.80;;;22.80;40.30;;;;;;5014418;28;20862;-64
2021/05/03 10:37:35;;;;;;;3.77;0.90;;;22.80;40.80;;;;;;5015083;28;20388;-64
2021/05/03 10:40:07;;;;;;;2.92;0.90;;;22.90;40.40;;;;;;5014905;28;20388;-64
2021/05/03 10:42:33;;;;;;;2.42;0.82;;;22.90;40.50;;;;;;5014800;28;20746;-63
2021/05/03 10:45:06;;;;;;;2.58;0.85;;;22.90;40.50;;;;;;5014207;28;20389;-63
2021/05/03 10:47:45;;;;;;;4.43;0.97;;;22.90;40.60;;;;;;5015014;28;20397;-64
2021/05/03 10:52:53;;;;;;;3.22;0.70;;;22.90;39.70;;;;;;5014375;28;20393;-64
2021/05/03 10:55:20;;;;;;;3.08;1.02;;;22.90;39.00;;;;;;5014564;28;20943;-60
2021/05/03 10:57:59;;;;;;;3.92;0.90;;;22.80;39.60;;;;;;5014877;28;20392;-64
2021/05/03 11:00:32;;;;;;;2.78;0.90;;;22.80;40.30;;;;;;5014416;28;20753;-64
2021/05/03 11:02:59;;;;;;;2.67;0.83;;;22.80;41.90;;;;;;5014115;28;20531;-64
2021/05/03 11:05:28;;;;;;;2.83;0.85;;;22.80;41.50;;;;;;5014600;28;20467;-63
2021/05/03 11:08:09;;;;;;;3.15;0.85;;;22.80;40.90;;;;;;5014314;28;20567;-63
2021/05/03 11:11:06;;;;;;;2.40;0.97;;;22.70;41.00;;;;;;5014143;28;20423;-60
2021/05/03 11:13:38;;;;;;;1.95;0.80;;;22.70;40.40;;;;;;5014669;28;20401;-63
2021/05/03 11:16:26;;;;;;;2.55;0.80;;;22.70;39.50;;;;;;5014188;28;21239;-63
2021/05/03 11:18:54;;;;;;;2.90;0.75;;;22.70;39.00;;;;;;5013560;28;20388;-63
2021/05/03 11:21:44;;;;;;;2.80;0.90;;;22.70;38.80;;;;;;5014300;28;20402;-63
2021/05/03 11:24:21;;;;;;;2.30;1.00;;;22.80;38.70;;;;;;5013929;28;20885;-63
2021/05/03 11:26:52;;;;;;;2.07;0.73;;;22.80;38.50;;;;;;5013882;28;20413;-63
2021/05/03 11:29:21;;;;;;;2.45;0.80;;;22.70;38.30;;;;;;5013848;28;20458;-63
2021/05/03 11:31:47;;;;;;;1.58;0.80;;;22.80;38.20;;;;;;5013880;28;20416;-61
2021/05/03 11:34:23;;;;;;;1.37;0.80;;;22.80;38.20;;;;;;5014081;28;20801;-62
2021/05/03 11:36:56;;;;;;;1.35;0.80;;;22.90;37.90;;;;;;5013770;28;20896;-63
2021/05/03 11:39:39;;;;;;;1.70;0.70;;;23.00;37.80;;;;;;5013495;28;20741;-63
2021/05/03 11:44:58;;;;;;;1.70;0.70;;;23.10;37.70;;;;;;5013459;28;20431;-64
2021/05/03 11:47:37;;;;;;;1.10;0.70;;;23.10;37.80;;;;;;5013485;28;20413;-62
2021/05/03 11:50:04;;;;;;;1.65;0.80;;;23.10;37.10;;;;;;5013339;28;20417;-61
2021/05/03 11:52:33;;;;;;;1.53;0.90;;;23.10;37.00;;;;;;5013628;28;20479;-61
2021/05/03 11:55:18;;;;;;;1.50;0.70;;;23.10;36.90;;;;;;5012829;28;20416;-60
2021/05/03 11:57:46;;;;;;;1.20;0.70;;;23.00;36.80;;;;;;5013607;28;20392;-60
2021/05/03 12:00:14;;;;;;;1.97;0.70;;;23.10;36.80;;;;;;5029210;28;20453;-64
2021/05/03 12:02:40;;;;;;;0.98;0.63;;;23.00;36.80;;;;;;5038990;28;20478;-62
2021/05/03 12:05:19;;;;;;;2.38;0.80;;;23.00;36.80;;;;;;5032116;28;20417;-63
2021/05/03 12:07:47;;;;;;;1.63;0.77;;;23.00;36.80;;;;;;5032012;28;20403;-63
2021/05/03 12:10:20;;;;;;;1.95;0.68;;;23.00;36.90;;;;;;5031221;28;20446;-63
2021/05/03 12:12:57;;;;;;;2.63;0.80;;;23.00;36.90;;;;;;5030811;28;20400;-64
2021/05/03 12:15:26;;;;;;;3.30;0.82;;;23.00;37.00;;;;;;5031032;28;20379;-63
2021/05/03 12:17:52;;;;;;;3.05;0.73;;;23.00;37.10;;;;;;5031426;28;20485;-63
2021/05/03 12:20:32;;;;;;;1.92;0.77;;;23.00;37.10;;;;;;5031442;28;20395;-62
2021/05/03 12:23:02;;;;;;;2.38;0.73;;;23.00;37.10;;;;;;5031006;28;20387;-64
2021/05/03 12:25:49;;;;;;;1.83;0.70;;;23.00;37.10;;;;;;5031178;28;20422;-64
2021/05/03 12:28:20;;;;;;;2.38;0.80;;;23.00;37.00;;;;;;5031350;28;20826;-64
2021/05/03 12:30:48;;;;;;;1.10;0.70;;;23.00;36.90;;;;;;5031135;28;20505;-63
2021/05/03 12:33:20;;;;;;;2.10;1.05;;;23.00;36.90;;;;;;5030565;28;20743;-64
2021/05/03 12:35:52;;;;;;;2.47;0.98;;;23.00;36.80;;;;;;5030471;28;20395;-63
2021/05/03 12:38:19;;;;;;;1.70;0.88;;;23.10;36.80;;;;;;5029820;28;20892;-63
2021/05/03 12:40:45;;;;;;;2.20;1.00;;;23.10;36.70;;;;;;5031116;28;20417;-60
2021/05/03 12:43:12;;;;;;;1.90;1.10;;;23.10;36.60;;;;;;5029286;28;20395;-64
2021/05/03 12:45:49;;;;;;;3.10;1.00;;;23.10;36.60;;;;;;5030891;28;20403;-63
2021/05/03 12:48:38;;;;;;;3.08;1.00;;;23.10;36.60;;;;;;5031246;28;20383;-63
2021/05/03 12:51:11;;;;;;;2.08;0.93;;;23.10;36.40;;;;;;5029905;28;20419;-64
2021/05/03 13:04:23;;;;;;;1.67;0.90;;;23.20;36.00;;;;;;5030818;28;20398;-63
2021/05/03 13:29:20;;;;;;;1.20;0.70;;;23.20;36.50;;;;;;5029177;28;20399;-63
2021/05/03 13:31:46;;;;;;;1.30;0.70;;;23.10;35.70;;;;;;5030107;28;20492;-64
2021/05/03 13:34:17;;;;;;;1.40;0.70;;;23.20;35.70;;;;;;5029337;28;21071;-64
2021/05/03 13:36:50;;;;;;;1.08;0.68;;;23.10;35.70;;;;;;5029369;28;20387;-63
2021/05/03 13:39:16;;;;;;;2.03;0.80;;;23.20;35.70;;;;;;5029492;28;20388;-63
2021/05/03 13:41:44;;;;;;;0.97;0.70;;;23.20;35.70;;;;;;5030138;28;20521;-63
2021/05/03 13:44:11;;;;;;;0.93;0.60;;;23.30;35.50;;;;;;5030202;28;20715;-62
2021/05/03 13:46:38;;;;;;;1.10;0.70;;;23.30;35.50;;;;;;5029726;28;20395;-64
2021/05/03 13:49:04;;;;;;;1.83;0.80;;;23.40;35.00;;;;;;5029273;28;20399;-63
2021/05/03 13:51:30;;;;;;;1.47;0.80;;;23.50;35.70;;;;;;5031038;28;20923;-63